TimePHT,TemperatureF,Dew PointF,Humidity,Sea Level PressureIn,VisibilityMPH,Wind Direction,Wind SpeedMPH,Gust SpeedMPH,PrecipitationIn,Events,Conditions,WindDirDegrees,DateUTC
2:00 AM,80,75,81,29.79,6,West,4.5,,,,Haze,270,2013-09-22 18:00:00
2:00 AM,80.6,75.2,84,29.80,6.2,West,4.6,-,N/A,,Scattered Clouds,270,2013-09-22 18:00:00
5:00 AM,80,76,86,29.80,6,Calm,Calm,,,,Haze,,2013-09-22 21:00:00
5:00 AM,80.6,77.0,89,29.83,6.2,Calm,Calm,-,N/A,,Mostly Cloudy,0,2013-09-22 21:00:00
6:00 AM,80.6,75.2,84,29.80,6.2,Calm,Calm,-,N/A,,Mostly Cloudy,0,2013-09-22 22:00:00
7:00 AM,82.4,77.0,84,29.80,6.2,Calm,Calm,-,N/A,,Mostly Cloudy,0,2013-09-22 23:00:00
8:00 AM,84,78,76,29.81,6,WSW,2.2,,,,Haze,250,2013-09-23 00:00:00
8:00 AM,84.2,77.0,79,29.83,6.2,WSW,2.3,-,N/A,,Partly Cloudy,250,2013-09-23 00:00:00
9:00 AM,86.0,77.0,74,29.86,6.2,West,2.3,-,N/A,,Partly Cloudy,270,2013-09-23 01:00:00
10:00 AM,87.8,77.0,70,29.83,6.2,West,4.6,-,N/A,,Partly Cloudy,270,2013-09-23 02:00:00
11:00 AM,90,76,55,29.77,7,SW,2.2,,,,Haze,220,2013-09-23 03:00:00
11:00 AM,91.4,75.2,59,29.80,6.2,SW,2.3,-,N/A,,Partly Cloudy,220,2013-09-23 03:00:00
12:00 PM,91.4,77.0,63,29.77,6.2,SW,2.3,-,N/A,,Partly Cloudy,220,2013-09-23 04:00:00
1:00 PM,93.2,75.2,56,29.77,6.2,Calm,Calm,-,N/A,,Partly Cloudy,0,2013-09-23 05:00:00
2:00 PM,93,76,48,29.72,7,West,2.2,,,,Haze,270,2013-09-23 06:00:00
2:00 PM,93.2,75.2,56,29.77,6.2,West,2.3,-,N/A,,Partly Cloudy,270,2013-09-23 06:00:00
3:00 PM,93.2,78.8,63,29.74,6.2,SSW,4.6,-,N/A,,Scattered Clouds,200,2013-09-23 07:00:00
4:00 PM,91.4,75.2,59,29.74,6.2,West,2.3,-,N/A,,Scattered Clouds,270,2013-09-23 08:00:00
5:00 PM,91,75,52,29.73,6,WSW,6.7,,,,Haze,250,2013-09-23 09:00:00
5:00 PM,91.4,75.2,59,29.77,6.2,WSW,6.9,-,N/A,,Mostly Cloudy,250,2013-09-23 09:00:00
6:00 PM,86.0,75.2,70,29.77,6.2,West,4.6,-,N/A,,Mostly Cloudy,270,2013-09-23 10:00:00
8:00 PM,85,77,71,29.82,6,West,2.2,,,,Haze,270,2013-09-23 12:00:00
8:00 PM,86.0,77.0,74,29.83,6.2,West,2.3,-,N/A,,Mostly Cloudy,270,2013-09-23 12:00:00
11:00 PM,83,77,79,29.83,6,Calm,Calm,,,,Haze,,2013-09-23 15:00:00
11:00 PM,82.4,77.0,84,29.86,6.2,Calm,Calm,-,N/A,,Overcast,0,2013-09-23 15:00:00